Strona główna
METAR-TAF:

METAR-TAF

Lotnisko :

Lannion, Francja

Szerokość geograficzna: 48-45N, Długość geograficzna: 003-28W, wysokość: 89 m

Aktualna obserwacja pogody

Raport powstał 18 minut temu, godzina 04:00 UTC
Wiatr 10 kt od północno-północny wschód w porywach dochodzący do 20 kt, zmienny między północny zachód i południowy wschód
Temperatura 5°C
Wilgotność 56%
Ciśnienie 1033 hPa
Widzialność 10 km lub więcej
Przerywane chmury na wysokości 4300 ft
Zachmurzenie całkowite na wysokości 5200 ft

METAR: LFRO 300400Z AUTO 03010G20KT 320V130 9999 BKN043 OVC052 05/M03 Q1033

czas: 06:18 (04:18 UTC)


TAF: brakujący

Obserwacja i prognoza pogody dla ponad 4000 lotnisk (raport METAR i TAF).

Dostępne stacje oznaczono żółtymi i czerwonymi punktami na mapie.

Najedź kursorem aby zobaczyć nazwę stacji.

Kliknij aby zobaczyć obserwacje i prognozy pogody.

Aby zmienić mapę: kliknij na zielony przycisk z czarnym krzyżykiem, aby powiększyć; na zielony przycisk z myślnikiem, aby pomniejszyć; na zielone strzałki, aby przejść do map sąsiednich.


METAR-TAF: